utilisation pie
utilisation bar
humidity graph
temperature graph
Station id: f3370e for 2 days

start:   stop:  

day time in temp out temp in RH out RH H quota rule action
2020-04-06 00:13:28 11.1 6.7 61 66 82 t
1
2020-04-06 00:43:40 10.8 6.8 60 66 86 h 0
2020-04-06 01:13:58 10.6 6.1 60 68 84 t
1
2020-04-06 01:44:15 10.3 6.0 60 68 86 h 0
2020-04-06 02:14:32 10.2 5.8 60 69 86 t
1
2020-04-06 02:44:44 10.0 5.5 60 70 87 t
1
2020-04-06 03:15:02 9.8 5.3 60 71 89 h 0
2020-04-06 03:45:19 9.6 5.0 61 70 85 t
1
2020-04-06 04:16:01 9.4 5.0 60 70 87 t
1
2020-04-06 04:46:13 9.2 4.9 60 70 88 h 0
2020-04-06 05:16:31 9.0 4.9 61 70 88 t
1
2020-04-06 05:46:48 8.8 4.6 60 71 89 t
1
2020-04-06 06:17:05 8.6 4.6 60 70 90 h 0
2020-04-06 06:47:22 8.5 4.4 61 71 88 t
1
2020-04-06 07:17:45 8.3 4.5 60 71 91 h 0
2020-04-06 07:48:02 8.2 5.7 61 69 96 h 0
2020-04-06 08:18:14 8.1 6.6 61 68 100 h 0
2020-04-06 08:48:26 8.1 8.0 62 65 105 h 0
2020-04-06 09:18:43 8.2 9.4 62 62 108 h 0
2020-04-06 09:49:00 8.2 10.6 63 56 103 h 0
2020-04-06 10:19:18 8.4 11.7 63 56 109 h 0
2020-04-06 10:49:35 8.7 12.8 65 53 107 h 0
2020-04-06 11:19:52 9.1 14.1 64 50 106 h 0
2020-04-06 11:50:09 9.6 14.5 64 50 107 h 0
2020-04-06 12:20:27 10.1 15.3 63 47 103 h 0
2020-04-06 12:50:39 10.6 15.7 62 45 99 h 0
2020-04-06 13:20:51 11.3 16.4 58 88 209 H 0
2020-04-06 13:50:52 11.9 17.5 56 80 202 H 0
2020-04-06 14:20:53 12.8 18.2 53 74 195 H 0
2020-04-06 14:50:54 13.7 17.2 50 90 223 H 0
2020-04-06 15:20:56 14.2 16.5 51 95 213 H 0
2020-04-06 15:50:57 14.4 16.8 50 90 209 H 0
2020-04-06 16:20:58 14.7 17.0 49 93 217 H 0
2020-04-06 16:50:59 14.8 16.6 49 88 202 H 0
2020-04-06 17:21:00 14.9 16.8 48 84 195 H 0
2020-04-06 17:51:01 14.9 16.9 49 85 195 H 0
2020-04-06 18:21:02 14.9 16.9 48 86 203 H 0
2020-04-06 18:51:04 14.8 16.5 49 92 209 H 0
2020-04-06 19:21:05 14.4 13.5 49 53 101 h 0
2020-04-06 19:51:23 14.0 12.6 52 56 100 h 0
2020-04-06 20:21:40 13.7 11.6 54 58 94 h 0
2020-04-06 20:51:57 13.4 10.9 55 60 93 h 0
2020-04-06 21:22:14 13.1 10.6 56 61 92 h 0
2020-04-06 21:52:32 13.0 10.3 58 62 91 h 0
2020-04-06 22:22:44 12.8 10.1 59 63 90 h 0
2020-04-06 22:52:56 12.6 9.6 59 64 89 h 0
2020-04-06 23:23:13 12.5 9.1 60 66 89 h 0
2020-04-06 23:53:31 12.3 8.9 60 67 90 t
1
2020-04-07 00:23:48 12.1 9.0 60 66 91 h 0
2020-04-07 00:54:06 11.9 8.8 60 68 93 h 0
2020-04-07 01:24:23 11.8 8.7 61 69 94 h 0
2020-04-07 01:54:36 11.6 8.5 61 69 93 h 0
2020-04-07 02:24:48 11.4 8.5 61 70 95 h 0
2020-04-07 02:55:00 11.3 8.5 62 72 98 h 0
2020-04-07 03:25:17 11.1 8.4 61 74 101 h 0
2020-04-07 03:55:34 11.0 8.2 62 74 100 h 0
2020-04-07 04:25:52 10.9 7.9 63 75 99 h 0
2020-04-07 04:56:09 10.7 7.8 63 78 102 h 0
2020-04-07 05:26:26 10.6 7.9 64 79 104 h 0
2020-04-07 05:56:38 10.5 7.9 65 82 107 h 0
2020-04-07 06:26:55 10.4 8.0 67 84 108 h 0
2020-04-07 06:57:08 10.3 7.9 67 85 109 h 0
2020-04-07 07:27:25 10.3 8.1 67 84 109 h 0
2020-04-07 07:57:42 10.2 8.2 67 85 112 h 0
2020-04-07 08:27:59 10.2 8.5 67 84 113 h 0
2020-04-07 08:58:16 10.1 9.3 69 83 115 h 0
2020-04-07 09:28:34 10.1 10.3 69 79 116 h 0
2020-04-07 09:58:51 10.2 10.9 69 77 117 h 0
2020-04-07 10:29:08 10.2 11.9 69 72 116 h 0
2020-04-07 10:59:20 10.3 12.4 70 70 115 h 0
2020-04-07 11:29:33 10.5 11.7 69 73 114 h 0
2020-04-07 11:59:50 10.7 11.8 69 73 113 h 0


2020-04-07 12:12:29 CEST